createdAt,value
2023-06-15T00:20:22.710Z,17.87
2023-06-15T00:42:11.212Z,16.26
2023-06-15T01:04:13.982Z,16.36
2023-06-15T01:26:07.529Z,17.36
2023-06-15T01:48:12.900Z,17.51
2023-06-15T02:09:58.774Z,17.15
2023-06-15T02:31:44.542Z,16.33
2023-06-15T02:53:30.340Z,16.10
2023-06-15T03:15:18.388Z,16.18
2023-06-15T03:37:04.348Z,16.09
2023-06-15T03:58:50.226Z,16.76
2023-06-15T04:20:37.441Z,17.21
2023-06-15T04:42:23.238Z,16.65
2023-06-15T05:04:09.556Z,16.42
2023-06-15T05:25:56.051Z,16.52
2023-06-15T05:47:41.935Z,16.69
2023-06-15T06:09:27.909Z,16.91
2023-06-15T06:31:13.731Z,17.26
2023-06-15T06:52:59.438Z,17.81
2023-06-15T07:15:04.129Z,18.59
2023-06-15T07:42:54.106Z,20.03
2023-06-15T08:04:38.044Z,20.35
2023-06-15T08:26:22.425Z,19.49
2023-06-15T08:48:08.106Z,19.60
2023-06-15T09:10:13.352Z,20.30
2023-06-15T09:31:56.393Z,20.11
2023-06-15T09:53:40.575Z,20.15
2023-06-15T10:15:26.840Z,21.36
2023-06-15T10:37:17.828Z,22.31
2023-06-15T10:59:04.360Z,22.50
2023-06-15T11:21:00.443Z,23.01
2023-06-15T11:42:43.537Z,22.54
2023-06-15T12:04:31.063Z,23.13
2023-06-15T12:26:17.268Z,26.02
2023-06-15T12:48:01.519Z,29.17
2023-06-15T13:09:44.646Z,28.34
2023-06-15T13:31:27.987Z,28.36
2023-06-15T13:53:11.017Z,29.75
2023-06-15T14:14:54.146Z,26.03
2023-06-15T14:36:37.381Z,25.59
2023-06-15T14:58:20.975Z,25.14
2023-06-15T15:20:05.910Z,26.61
2023-06-15T15:41:50.335Z,28.53
2023-06-15T16:03:33.467Z,28.13
2023-06-15T16:25:17.182Z,27.64
2023-06-15T16:47:00.532Z,25.68
2023-06-15T17:08:43.730Z,23.10
2023-06-15T17:30:27.006Z,21.94
2023-06-15T17:52:10.653Z,21.33
2023-06-15T18:13:54.296Z,20.92
2023-06-15T18:35:37.340Z,20.44
2023-06-15T18:57:21.046Z,19.93
2023-06-15T19:19:04.121Z,19.53
2023-06-15T19:40:47.132Z,19.22
2023-06-15T20:02:30.459Z,18.90
2023-06-15T20:24:13.609Z,18.51
2023-06-15T20:45:58.446Z,18.22
2023-06-15T21:12:02.709Z,17.84
2023-06-15T21:33:48.749Z,17.52
2023-06-15T22:17:39.606Z,17.18
2023-06-15T22:39:25.458Z,17.43
2023-06-15T23:01:12.165Z,16.97
2023-06-15T23:22:59.458Z,16.51
2023-06-15T23:44:45.845Z,16.33
